Laurel, MD (20707)

5:55 PM EDT on October 20, 2014 (GMT -0400)
McKnew | Change Station
CLOSE
Current Station
Personal Weather Station
Location: Burtonsville, MD
Elevation: 417 ft
Nearby Weather Stations

Elev 417 ft 39.10 °N, 76.92 °W | Updated 12 minutes ago

Partly Cloudy
Partly Cloudy
63.1 °F
Feels Like 63.1 °F
N
0.0
Wind Variable Wind from South

Today
High -- | Low -- °F
--% Chance of Precip.
Yesterday
High -- | Low -- °F
Precip. -- in
7:22 AM 6:21 PM
Waning Crescent, 9% visible
Pressure 29.97 in
Visibility 10.0 miles
Clouds Clear
Dew Point 53 °F
Humidity 69%
Rainfall 0.00 in
Snow Depth Not available.
UV 0 out of 12
Pollen 1.50 out of 12
Air Quality Not available.
Flu Activity Sporadic
METAR KFME 202148Z AUTO 00000KT 10SM CLR 16/08 A2997 RMK AO1

More Conditions Fewer Conditions

Pressure 29.97 in
Visibility 10.0 miles
Clouds Clear
Dew Point 53 °F
Humidity 69%
Rainfall 0.00 in
Snow Depth Not available.
UV 0 out of 12
Pollen 1.50 out of 12
Air Quality Not available.
Flu Activity Sporadic
METAR KFME 202148Z AUTO 00000KT 10SM CLR 16/08 A2997 RMK AO1

More Conditions Fewer Conditions

10-Day Weather Forecast

Almanac

Astronomy

Oct. 20, 2014 Rise Set
Actual Time 7:22 AM EDT 6:21 PM EDT
Civil Twilight 6:55 AM EDT 6:48 PM EDT
Nautical Twilight 6:23 AM EDT 7:19 PM EDT
Astronomical Twilight 5:52 AM EDT 7:50 PM EDT
Moon 4:09 AM EDT 4:42 PM EDT
Length of Visible Light 11h 53m
Length of Day
10h 59m
Waning Crescent, 9% of the Moon is Illuminated
Today
Waning Crescent
Oct 23
New
Oct 30
First Quarter
Nov 6
Full
Nov 14
Last Quarter

Today's Extremes

State Highs State Lows

Community

WunderPhotos

Upload Photos

1,763,527 photos uploaded!

WunderBlogs® & News

Nearby

Snow Depth

Station Depth Elevation
No new snow has been reported.

Earthquake Activity

City Distance Mag. Time & Date
No recent earthquake activity has been reported nearby.
Minimum magnitude displayed is 2.5.

Coastal Water Temperatures

Place Temperature
Washington, DC 64.0 °F
Baltimore, MD 66.9 °F
Solomons Island, MD 66.0 °F

Nearby Weather Stations